Terminal Aerodrome Forecast
Issued by NWS

Home | Current Version | Previous Version | Graphics & Text | Print | Product List | Glossary On
Versions: 1 2 3 4 5 6 7 8 9 10 11 12 13 14 15 16 17
000
FTUS43 KIWX 270521
TAFSBN
TAF
KSBN 270521Z 2706/2806 06010KT P6SM OVC012
     FM271200 09014G20KT P6SM BKN025
     FM271600 09012KT P6SM SCT040 BKN250=

USA.gov is the U.S. government's official web portal to all federal, state and local government web resources and services.